Time;durP1;ratioP1;P1;durP2;ratioP2;P2;SDS_P1;SDS_P2;PMS_P1;PMS_P2;Temp;Humidity;BMP_temperature;BMP_pressure;BME280_temperature;BME280_humidity;BME280_pressure;Samples;Min_cycle;Max_cycle;Signal;HPM_P1;HPM_P2
2022/04/03 00:00:37;;;;;;;1.23;0.85;;;22.90;39.00;;;;;;4993292;28;19918;-66
2022/04/03 00:03:04;;;;;;;0.88;0.80;;;22.90;39.00;;;;;;4991307;28;20573;-63
2022/04/03 00:05:35;;;;;;;0.90;0.80;;;22.90;39.00;;;;;;4994901;28;20092;-65
2022/04/03 00:08:00;;;;;;;1.25;0.80;;;22.80;39.00;;;;;;4994929;28;20038;-62
2022/04/03 00:10:26;;;;;;;1.20;0.80;;;22.80;39.00;;;;;;4994116;28;20036;-66
2022/04/03 00:12:52;;;;;;;1.50;0.90;;;22.80;39.00;;;;;;4993740;28;20042;-66
2022/04/03 00:15:18;;;;;;;1.27;0.80;;;22.80;39.00;;;;;;4992625;28;20178;-63
2022/04/03 00:17:45;;;;;;;1.13;0.70;;;22.80;39.00;;;;;;4990995;28;20038;-64
2022/04/03 00:20:12;;;;;;;1.38;0.80;;;22.70;39.00;;;;;;4994881;28;20064;-62
2022/04/03 00:22:38;;;;;;;0.95;0.80;;;22.70;39.00;;;;;;4994631;28;20532;-61
2022/04/03 00:25:04;;;;;;;1.23;0.70;;;22.70;39.00;;;;;;4998352;28;20029;-64
2022/04/03 00:27:30;;;;;;;1.02;0.80;;;22.70;39.00;;;;;;4997204;28;20030;-64
2022/04/03 00:29:56;;;;;;;1.55;0.90;;;22.60;39.00;;;;;;5011167;28;20076;-62
2022/04/03 00:32:22;;;;;;;1.10;0.85;;;22.60;39.00;;;;;;4995230;28;20037;-64
2022/04/03 00:34:47;;;;;;;0.73;0.73;;;22.60;39.00;;;;;;4996819;28;20084;-65
2022/04/03 00:37:13;;;;;;;1.25;0.82;;;22.60;39.10;;;;;;4997719;28;20041;-66
2022/04/03 00:39:39;;;;;;;0.70;0.60;;;22.60;39.10;;;;;;4997542;28;20084;-63
2022/04/03 00:42:09;;;;;;;0.98;0.80;;;22.60;39.10;;;;;;4998258;28;20325;-62
2022/04/03 00:44:36;;;;;;;0.68;0.68;;;22.50;39.10;;;;;;4997659;28;20383;-64
2022/04/03 00:47:03;;;;;;;1.50;0.70;;;22.50;39.10;;;;;;4995979;28;20026;-60
2022/04/03 00:49:30;;;;;;;1.02;0.70;;;22.50;39.10;;;;;;4996091;28;20034;-61
2022/04/03 00:51:56;;;;;;;1.08;0.80;;;22.50;39.10;;;;;;4997780;28;20445;-64
2022/04/03 00:54:22;;;;;;;0.90;0.70;;;22.50;39.10;;;;;;4997429;28;20026;-64
2022/04/03 00:56:47;;;;;;;0.70;0.65;;;22.50;39.10;;;;;;4996959;28;20053;-64
2022/04/03 00:59:14;;;;;;;1.38;0.70;;;22.40;39.10;;;;;;4997177;28;20462;-60
2022/04/03 01:01:44;;;;;;;1.05;0.80;;;22.40;39.10;;;;;;4994780;28;20503;-64
2022/04/03 01:04:11;;;;;;;0.90;0.70;;;22.40;39.10;;;;;;4996340;28;20128;-62
2022/04/03 01:06:36;;;;;;;0.73;0.70;;;22.40;39.10;;;;;;4996606;28;20026;-61
2022/04/03 01:09:03;;;;;;;0.90;0.70;;;22.40;39.20;;;;;;4996118;28;20479;-64
2022/04/03 01:11:30;;;;;;;0.90;0.80;;;22.40;39.20;;;;;;4997673;28;20481;-62
2022/04/03 01:13:56;;;;;;;0.93;0.80;;;22.30;39.20;;;;;;4996365;28;20095;-63
2022/04/03 01:16:21;;;;;;;1.25;0.95;;;22.30;39.20;;;;;;4992943;28;20053;-65
2022/04/03 01:18:47;;;;;;;0.98;0.90;;;22.30;39.20;;;;;;4994236;28;20457;-63
2022/04/03 01:21:14;;;;;;;0.80;0.70;;;22.30;39.20;;;;;;4996399;28;20140;-64
2022/04/03 01:23:40;;;;;;;0.80;0.70;;;22.30;39.20;;;;;;4996103;28;20125;-62
2022/04/03 01:26:06;;;;;;;0.82;0.73;;;22.30;39.20;;;;;;4997107;28;20046;-64
2022/04/03 01:28:31;;;;;;;0.57;0.57;;;22.20;39.20;;;;;;4996470;28;20029;-63
2022/04/03 01:30:57;;;;;;;1.13;0.70;;;22.30;39.30;;;;;;4996137;28;20381;-65
2022/04/03 01:33:23;;;;;;;0.70;0.70;;;22.20;39.30;;;;;;4992604;28;20494;-64
2022/04/03 01:35:49;;;;;;;0.88;0.70;;;22.20;39.30;;;;;;4996012;28;20388;-64
2022/04/03 01:38:14;;;;;;;1.30;1.00;;;22.10;39.30;;;;;;4995955;28;20022;-66
2022/04/03 01:40:43;;;;;;;0.60;0.50;;;22.10;39.30;;;;;;4995696;28;20061;-64
2022/04/03 01:43:10;;;;;;;0.60;0.60;;;22.10;39.40;;;;;;4992677;28;20084;-64
2022/04/03 01:45:37;;;;;;;0.93;0.73;;;22.10;39.40;;;;;;4994411;28;20073;-62
2022/04/03 01:48:04;;;;;;;1.08;0.80;;;22.10;39.40;;;;;;4992355;28;20100;-64
2022/04/03 01:50:30;;;;;;;1.00;0.70;;;22.00;39.40;;;;;;4993770;28;20029;-63
2022/04/03 01:52:55;;;;;;;1.15;0.80;;;22.00;39.40;;;;;;4995746;28;20450;-62
2022/04/03 01:55:23;;;;;;;0.63;0.60;;;22.00;39.50;;;;;;4996031;28;20078;-64
2022/04/03 01:57:48;;;;;;;1.10;0.70;;;22.00;39.50;;;;;;4993349;28;20025;-64
2022/04/03 02:00:14;;;;;;;0.60;0.60;;;22.00;39.50;;;;;;4994611;28;20040;-62
2022/04/03 02:02:40;;;;;;;0.68;0.57;;;22.00;39.50;;;;;;4990533;28;20306;-64
2022/04/03 02:05:06;;;;;;;0.88;0.70;;;22.00;39.60;;;;;;4995609;28;20053;-62
2022/04/03 02:07:33;;;;;;;0.70;0.57;;;22.00;39.50;;;;;;4995427;28;20036;-64
2022/04/03 02:10:00;;;;;;;0.70;0.70;;;21.90;39.50;;;;;;4995331;28;20624;-64
2022/04/03 02:12:26;;;;;;;0.82;0.80;;;21.90;39.60;;;;;;4993156;28;20140;-63
2022/04/03 02:14:51;;;;;;;0.80;0.70;;;21.90;39.60;;;;;;4995162;28;20030;-66
2022/04/03 02:17:17;;;;;;;0.73;0.60;;;21.90;39.70;;;;;;4993621;28;20026;-66
2022/04/03 02:19:43;;;;;;;0.75;0.70;;;21.80;39.70;;;;;;4994427;28;20030;-63
2022/04/03 02:22:09;;;;;;;0.73;0.70;;;21.80;39.70;;;;;;4994822;28;20022;-64
2022/04/03 02:24:34;;;;;;;1.08;0.70;;;21.80;39.70;;;;;;4995129;28;20061;-62
2022/04/03 02:27:00;;;;;;;1.23;0.70;;;21.80;39.70;;;;;;4993818;28;20096;-62
2022/04/03 02:29:26;;;;;;;1.17;0.70;;;21.80;39.70;;;;;;4993184;28;20509;-60
2022/04/03 02:31:51;;;;;;;1.00;0.70;;;21.80;39.70;;;;;;4990915;28;20500;-61
2022/04/03 02:34:17;;;;;;;0.73;0.70;;;21.80;39.80;;;;;;4992761;28;20079;-66
2022/04/03 02:36:43;;;;;;;1.15;0.77;;;21.80;39.80;;;;;;4994078;28;20398;-66
2022/04/03 02:39:10;;;;;;;1.02;0.80;;;21.80;39.80;;;;;;4994731;28;20261;-63
2022/04/03 02:41:36;;;;;;;1.15;0.60;;;21.80;39.80;;;;;;4994042;28;20061;-62
2022/04/03 02:44:03;;;;;;;0.93;0.70;;;21.70;39.70;;;;;;4992990;28;21126;-63
2022/04/03 02:46:30;;;;;;;0.70;0.70;;;21.70;39.80;;;;;;4990759;28;20036;-62
2022/04/03 02:48:56;;;;;;;0.93;0.70;;;21.70;39.80;;;;;;4992808;28;20296;-60
2022/04/03 02:51:22;;;;;;;0.70;0.70;;;21.70;39.80;;;;;;4995059;28;20034;-63
2022/04/03 02:53:47;;;;;;;0.80;0.70;;;21.70;39.80;;;;;;4993208;28;20029;-63
2022/04/03 02:56:13;;;;;;;1.17;0.63;;;21.70;39.80;;;;;;4995192;28;20512;-64
2022/04/03 02:58:40;;;;;;;1.15;0.80;;;21.70;39.80;;;;;;4994050;28;20050;-61
2022/04/03 03:01:06;;;;;;;1.70;0.80;;;21.70;39.80;;;;;;4992701;28;20548;-63
2022/04/03 03:03:32;;;;;;;1.25;0.90;;;21.70;39.80;;;;;;4988381;28;20026;-63
2022/04/03 03:05:58;;;;;;;1.17;0.80;;;21.70;39.80;;;;;;4994171;28;20429;-63
2022/04/03 03:08:23;;;;;;;1.30;0.82;;;21.70;39.80;;;;;;4994919;28;20030;-63
2022/04/03 03:10:49;;;;;;;0.65;0.65;;;21.70;39.80;;;;;;5008826;28;20101;-61
2022/04/03 03:13:14;;;;;;;1.00;0.70;;;21.70;39.80;;;;;;4991560;28;20073;-66
2022/04/03 03:15:40;;;;;;;1.00;0.73;;;21.70;39.80;;;;;;4992156;28;20109;-61
2022/04/03 03:18:06;;;;;;;0.93;0.73;;;21.70;39.80;;;;;;4990622;28;20478;-63
2022/04/03 03:20:32;;;;;;;0.98;0.70;;;21.70;40.30;;;;;;4993479;28;20033;-63
2022/04/03 03:22:57;;;;;;;1.13;0.80;;;21.70;39.80;;;;;;4994185;28;20474;-62
2022/04/03 03:25:23;;;;;;;1.02;0.80;;;21.70;39.80;;;;;;4993825;28;20145;-63
2022/04/03 03:27:49;;;;;;;1.25;0.80;;;21.60;39.70;;;;;;4994473;28;20026;-63
2022/04/03 03:30:14;;;;;;;0.63;0.63;;;21.70;39.80;;;;;;4990887;28;20032;-63
2022/04/03 03:32:40;;;;;;;1.23;0.80;;;21.60;39.80;;;;;;4991427;28;20141;-63
2022/04/03 03:35:06;;;;;;;1.08;0.80;;;21.60;39.70;;;;;;4992416;28;20038;-63
2022/04/03 03:37:32;;;;;;;0.82;0.80;;;21.60;39.70;;;;;;4994611;28;20075;-67
2022/04/03 03:39:57;;;;;;;0.98;0.70;;;21.60;39.70;;;;;;4993968;28;20021;-61
2022/04/03 03:42:23;;;;;;;1.05;0.77;;;21.60;39.70;;;;;;4992755;28;20524;-62
2022/04/03 03:44:49;;;;;;;1.10;0.80;;;21.60;39.70;;;;;;4990984;28;20905;-63
2022/04/03 03:47:14;;;;;;;1.10;0.80;;;21.60;39.70;;;;;;4990639;28;20458;-63
2022/04/03 03:49:40;;;;;;;1.17;0.75;;;21.60;39.70;;;;;;4992493;28;20030;-61
2022/04/03 03:52:06;;;;;;;0.85;0.60;;;21.60;39.70;;;;;;5007208;28;20029;-63
2022/04/03 03:54:32;;;;;;;1.27;0.77;;;21.60;39.70;;;;;;4993004;28;20038;-63
2022/04/03 03:56:58;;;;;;;0.70;0.70;;;21.60;39.70;;;;;;4994552;28;20037;-67
2022/04/03 03:59:24;;;;;;;1.08;0.90;;;21.60;39.70;;;;;;4992779;28;20022;-65
2022/04/03 04:01:50;;;;;;;0.80;0.70;;;21.60;39.70;;;;;;4988661;28;20149;-60
2022/04/03 04:04:16;;;;;;;1.90;0.80;;;21.60;39.70;;;;;;4992052;28;20097;-63
2022/04/03 04:06:41;;;;;;;1.75;0.70;;;21.60;39.70;;;;;;4993153;28;20033;-62
2022/04/03 04:09:07;;;;;;;0.88;0.63;;;21.60;39.70;;;;;;4993194;28;20065;-63
2022/04/03 04:11:34;;;;;;;1.45;0.80;;;21.50;39.70;;;;;;4994152;28;20560;-63
2022/04/03 04:13:59;;;;;;;1.42;0.90;;;21.60;39.80;;;;;;4992532;28;20121;-64
2022/04/03 04:16:25;;;;;;;1.08;0.70;;;21.50;39.70;;;;;;4990020;28;20113;-64
2022/04/03 04:18:51;;;;;;;1.15;0.85;;;21.50;40.20;;;;;;4992508;28;20498;-66
2022/04/03 04:21:17;;;;;;;0.88;0.80;;;21.60;39.70;;;;;;4993935;28;20157;-63
2022/04/03 04:23:43;;;;;;;0.90;0.80;;;21.60;39.70;;;;;;5001517;28;20026;-63
2022/04/03 04:26:09;;;;;;;1.02;0.80;;;21.60;39.80;;;;;;4994101;28;21014;-63
2022/04/03 04:28:35;;;;;;;0.80;0.70;;;21.60;39.80;;;;;;5005266;28;20731;-62
2022/04/03 04:31:01;;;;;;;0.73;0.73;;;21.60;39.80;;;;;;4992073;28;20509;-66
2022/04/03 04:33:27;;;;;;;0.68;0.60;;;21.50;39.70;;;;;;4988261;28;20026;-67
2022/04/03 04:35:52;;;;;;;0.95;0.77;;;21.50;39.70;;;;;;4993097;28;20065;-63
2022/04/03 04:38:18;;;;;;;0.80;0.70;;;21.50;39.70;;;;;;4992438;28;20107;-62
2022/04/03 04:40:44;;;;;;;1.27;0.80;;;21.50;39.70;;;;;;4991442;28;20248;-63
2022/04/03 04:43:11;;;;;;;1.30;0.85;;;21.50;39.70;;;;;;4992795;28;20119;-67
2022/04/03 04:45:36;;;;;;;1.05;0.85;;;21.50;39.80;;;;;;4992225;28;20046;-67
2022/04/03 04:48:02;;;;;;;1.02;0.70;;;21.50;39.80;;;;;;4989536;28;20064;-63
2022/04/03 04:50:29;;;;;;;0.85;0.70;;;21.50;39.80;;;;;;4993526;28;20034;-67
2022/04/03 04:52:56;;;;;;;1.05;0.77;;;21.50;39.90;;;;;;4993214;28;20018;-63
2022/04/03 04:55:23;;;;;;;1.08;0.80;;;21.50;39.90;;;;;;4993506;28;20034;-62
2022/04/03 04:57:50;;;;;;;1.08;0.90;;;21.40;39.80;;;;;;4992337;28;21513;-63
2022/04/03 05:00:16;;;;;;;1.17;0.80;;;21.50;39.90;;;;;;4992000;28;20558;-61
2022/04/03 05:02:45;;;;;;;0.65;0.63;;;21.40;39.90;;;;;;4986821;28;20092;-63
2022/04/03 05:05:13;;;;;;;0.95;0.70;;;21.40;39.90;;;;;;4994018;28;20053;-66
2022/04/03 05:07:38;;;;;;;0.98;0.75;;;21.40;39.90;;;;;;4990021;28;20120;-63
2022/04/03 05:10:04;;;;;;;1.15;0.68;;;21.40;39.90;;;;;;4996901;28;20435;-63
2022/04/03 05:12:30;;;;;;;0.93;0.75;;;21.40;39.90;;;;;;4996238;28;20029;-63
2022/04/03 05:14:57;;;;;;;1.23;0.80;;;21.40;39.90;;;;;;4997197;28;20053;-62
2022/04/03 05:17:22;;;;;;;0.90;0.70;;;21.40;40.00;;;;;;4992932;28;20102;-67
2022/04/03 05:19:48;;;;;;;1.33;0.73;;;21.40;40.00;;;;;;4993738;28;20160;-63
2022/04/03 05:22:13;;;;;;;0.88;0.70;;;21.40;40.00;;;;;;4997313;28;20026;-67
2022/04/03 05:24:39;;;;;;;0.95;0.80;;;21.40;40.00;;;;;;4996264;28;20026;-64
2022/04/03 05:27:05;;;;;;;1.30;0.73;;;21.40;40.00;;;;;;4996526;28;20541;-67
2022/04/03 05:29:34;;;;;;;1.52;0.85;;;21.40;40.00;;;;;;4995208;28;20125;-63
2022/04/03 05:32:00;;;;;;;1.23;1.00;;;21.40;40.00;;;;;;4992817;28;20038;-65
2022/04/03 05:34:26;;;;;;;1.15;0.80;;;21.40;40.10;;;;;;4994429;28;20913;-61
2022/04/03 05:36:51;;;;;;;1.10;0.90;;;21.30;40.00;;;;;;4994958;28;20068;-63
2022/04/03 05:39:17;;;;;;;1.92;1.00;;;21.30;40.00;;;;;;4995963;28;20454;-64
2022/04/03 05:41:43;;;;;;;0.80;0.73;;;21.30;40.10;;;;;;4995159;28;20029;-61
2022/04/03 05:44:09;;;;;;;1.40;0.95;;;21.30;40.10;;;;;;4995255;28;20176;-62
2022/04/03 05:46:34;;;;;;;1.67;0.82;;;21.30;40.10;;;;;;4993873;28;20055;-67
2022/04/03 05:49:00;;;;;;;0.82;0.65;;;21.30;40.10;;;;;;4991428;28;20117;-65
2022/04/03 05:51:26;;;;;;;1.17;0.88;;;21.30;40.10;;;;;;4996174;28;20084;-61
2022/04/03 05:53:52;;;;;;;1.20;0.80;;;21.30;40.10;;;;;;4994344;28;20022;-63
2022/04/03 05:56:17;;;;;;;0.82;0.70;;;21.30;40.10;;;;;;4994186;28;20124;-63
2022/04/03 05:58:43;;;;;;;0.90;0.70;;;21.30;40.10;;;;;;4995684;28;20109;-63
2022/04/03 06:01:09;;;;;;;1.10;0.70;;;21.30;40.10;;;;;;4995244;28;20104;-63
2022/04/03 06:03:35;;;;;;;1.13;0.80;;;21.30;40.10;;;;;;4994402;28;20671;-63
2022/04/03 06:06:01;;;;;;;1.27;0.80;;;21.30;40.70;;;;;;4989328;28;20081;-61
2022/04/03 06:08:26;;;;;;;1.02;0.80;;;21.30;40.10;;;;;;4995582;28;20022;-63
2022/04/03 06:10:52;;;;;;;1.17;0.80;;;21.30;40.10;;;;;;4992290;28;20026;-64
2022/04/03 06:13:18;;;;;;;1.10;0.90;;;21.30;40.20;;;;;;4996156;28;20137;-62
2022/04/03 06:15:46;;;;;;;0.70;0.70;;;21.20;40.10;;;;;;4994527;28;20021;-63
2022/04/03 06:18:14;;;;;;;1.48;0.82;;;21.20;40.10;;;;;;4992852;28;20216;-63
2022/04/03 06:20:40;;;;;;;0.88;0.70;;;21.20;40.20;;;;;;4994801;28;20072;-63
2022/04/03 06:23:15;;;;;;;1.10;0.80;;;21.20;40.20;;;;;;4994356;28;20405;-63
2022/04/03 06:25:41;;;;;;;1.25;0.80;;;21.20;40.20;;;;;;4995663;28;20547;-64
2022/04/03 06:28:07;;;;;;;1.13;0.80;;;21.20;40.20;;;;;;4995984;28;20383;-61
2022/04/03 06:30:32;;;;;;;0.90;0.75;;;21.20;40.20;;;;;;4992358;28;20098;-61
2022/04/03 06:32:58;;;;;;;1.13;0.73;;;21.20;40.20;;;;;;4989808;28;20466;-61
2022/04/03 06:35:23;;;;;;;0.95;0.73;;;21.20;40.20;;;;;;4992911;28;20026;-62
2022/04/03 06:37:49;;;;;;;1.08;0.80;;;21.20;40.20;;;;;;4994339;28;20029;-67
2022/04/03 06:40:16;;;;;;;0.80;0.70;;;21.20;40.20;;;;;;4993015;28;20033;-63
2022/04/03 06:42:42;;;;;;;0.95;0.80;;;21.20;40.20;;;;;;4988663;28;20466;-61
2022/04/03 06:45:09;;;;;;;1.10;0.70;;;21.20;40.20;;;;;;4990097;28;20049;-63
2022/04/03 06:47:35;;;;;;;1.30;0.70;;;21.20;40.20;;;;;;4991858;28;20355;-63
2022/04/03 06:50:02;;;;;;;1.35;0.90;;;21.20;40.30;;;;;;4989452;28;20033;-61
2022/04/03 06:52:28;;;;;;;0.90;0.80;;;21.20;40.20;;;;;;4990864;28;20057;-62
2022/04/03 06:54:54;;;;;;;1.10;0.80;;;21.20;40.20;;;;;;4990502;28;20018;-61
2022/04/03 06:57:19;;;;;;;1.58;0.90;;;21.20;40.20;;;;;;4994772;28;20045;-63
2022/04/03 06:59:46;;;;;;;1.08;0.80;;;21.20;40.20;;;;;;4992441;28;20029;-63
2022/04/03 07:02:11;;;;;;;1.25;0.70;;;21.20;40.20;;;;;;4991105;28;20068;-66
2022/04/03 07:04:37;;;;;;;1.10;0.80;;;21.20;40.20;;;;;;4989258;28;20034;-67
2022/04/03 07:07:04;;;;;;;1.00;0.77;;;21.20;40.30;;;;;;4989843;28;20058;-63
2022/04/03 07:09:30;;;;;;;0.90;0.73;;;21.20;40.30;;;;;;4995959;28;20026;-65
2022/04/03 07:11:55;;;;;;;1.60;0.80;;;21.10;40.70;;;;;;4985021;28;20033;-63
2022/04/03 07:14:22;;;;;;;1.63;0.80;;;21.10;40.20;;;;;;4991316;28;20048;-67
2022/04/03 07:16:48;;;;;;;0.80;0.70;;;21.10;40.20;;;;;;4990871;28;20030;-64
2022/04/03 07:19:14;;;;;;;2.25;0.82;;;21.10;40.20;;;;;;4990298;28;20056;-67
2022/04/03 07:21:40;;;;;;;0.88;0.70;;;21.10;40.20;;;;;;4992657;28;20034;-67
2022/04/03 07:24:06;;;;;;;1.35;0.93;;;21.10;40.20;;;;;;4992430;28;20103;-62
2022/04/03 07:26:31;;;;;;;2.10;0.90;;;21.10;40.20;;;;;;4991310;28;20761;-63
2022/04/03 07:28:57;;;;;;;2.30;1.00;;;21.10;40.30;;;;;;4992994;28;20030;-64
2022/04/03 07:31:23;;;;;;;1.05;0.70;;;21.10;40.30;;;;;;4991644;28;20191;-65
2022/04/03 07:33:49;;;;;;;1.60;0.98;;;21.10;40.30;;;;;;4989794;28;20664;-64
2022/04/03 07:36:15;;;;;;;1.35;0.90;;;21.10;40.30;;;;;;4991388;28;20493;-68
2022/04/03 07:38:40;;;;;;;1.58;0.90;;;21.10;40.30;;;;;;4989653;28;20034;-62
2022/04/03 07:41:06;;;;;;;1.50;0.80;;;21.10;40.30;;;;;;4991456;28;20030;-67
2022/04/03 07:43:32;;;;;;;1.77;0.90;;;21.10;40.30;;;;;;4989153;28;20125;-63
2022/04/03 07:45:58;;;;;;;1.90;0.90;;;21.10;40.30;;;;;;4989533;28;20045;-62
2022/04/03 07:48:24;;;;;;;1.77;0.93;;;21.10;40.30;;;;;;4988595;28;20171;-62
2022/04/03 07:50:51;;;;;;;2.13;1.00;;;21.10;40.30;;;;;;4994134;28;20026;-64
2022/04/03 07:53:16;;;;;;;1.48;0.90;;;21.10;40.30;;;;;;4990137;28;20451;-63
2022/04/03 07:55:42;;;;;;;1.60;0.80;;;21.10;40.30;;;;;;4992507;28;20036;-63
2022/04/03 07:58:08;;;;;;;2.42;1.10;;;21.10;40.30;;;;;;4993408;28;20033;-61
2022/04/03 08:00:33;;;;;;;1.95;1.05;;;21.10;40.30;;;;;;4991911;28;20044;-61
2022/04/03 08:02:59;;;;;;;2.00;0.95;;;21.10;40.30;;;;;;4990253;28;20041;-63
2022/04/03 08:05:25;;;;;;;1.60;0.98;;;21.10;40.30;;;;;;4992790;28;20470;-62
2022/04/03 08:07:50;;;;;;;2.25;1.00;;;21.00;40.30;;;;;;4992512;28;20137;-64
2022/04/03 08:10:20;;;;;;;3.72;1.20;;;21.00;40.20;;;;;;4990128;28;20030;-63
2022/04/03 08:12:47;;;;;;;3.97;1.60;;;21.00;36.90;;;;;;4988334;28;20064;-64
2022/04/03 08:15:14;;;;;;;2.38;1.60;;;20.80;34.90;;;;;;4982523;28;20110;-65
2022/04/03 08:17:41;;;;;;;3.25;1.90;;;20.60;32.30;;;;;;4988755;28;20580;-64
2022/04/03 08:20:11;;;;;;;2.55;1.67;;;20.20;30.70;;;;;;4989760;28;20044;-64
2022/04/03 08:22:39;;;;;;;2.40;1.60;;;20.00;29.40;;;;;;4993563;28;20026;-67
2022/04/03 08:25:05;;;;;;;2.95;1.70;;;19.60;28.70;;;;;;4988079;28;20036;-65
2022/04/03 08:27:49;;;;;;;2.63;1.38;;;19.40;29.00;;;;;;4994022;28;20492;-64
2022/04/03 08:30:42;;;;;;;1.85;1.20;;;19.30;30.10;;;;;;4989837;28;20026;-64
2022/04/03 08:33:09;;;;;;;2.50;1.23;;;19.50;30.60;;;;;;4986934;28;20127;-65
2022/04/03 08:35:38;;;;;;;1.73;0.98;;;19.60;31.40;;;;;;4993749;28;20030;-64
2022/04/03 08:38:05;;;;;;;2.40;1.20;;;19.70;32.00;;;;;;4989322;28;20124;-65
2022/04/03 08:40:31;;;;;;;1.70;1.00;;;19.90;32.60;;;;;;4991116;28;20445;-62
2022/04/03 08:42:57;;;;;;;2.00;1.08;;;19.90;33.10;;;;;;4994380;28;20026;-64
2022/04/03 08:45:24;;;;;;;2.20;1.10;;;20.00;33.50;;;;;;4994516;28;21151;-63
2022/04/03 08:47:52;;;;;;;2.05;1.10;;;20.10;33.80;;;;;;4994721;28;20044;-63
2022/04/03 08:50:20;;;;;;;2.50;1.10;;;20.10;34.20;;;;;;4990563;28;20034;-64
2022/04/03 08:52:50;;;;;;;1.30;0.90;;;20.20;34.40;;;;;;4992681;28;20026;-64
2022/04/03 08:55:17;;;;;;;2.85;1.10;;;20.20;34.80;;;;;;4988734;28;20029;-62
2022/04/03 08:57:43;;;;;;;2.17;1.10;;;20.20;35.00;;;;;;4992331;28;20339;-63
2022/04/03 09:00:10;;;;;;;2.80;1.00;;;20.30;35.20;;;;;;4991235;28;20048;-64
2022/04/03 09:02:36;;;;;;;2.50;1.27;;;20.30;35.40;;;;;;4991322;28;20080;-65
2022/04/03 09:05:04;;;;;;;2.58;1.23;;;20.30;35.50;;;;;;4993097;28;20430;-66
2022/04/03 09:07:29;;;;;;;1.95;1.15;;;20.30;35.70;;;;;;4990419;28;20080;-64
2022/04/03 09:10:05;;;;;;;4.10;1.13;;;20.30;35.80;;;;;;4991753;28;20104;-62
2022/04/03 09:12:31;;;;;;;2.95;1.33;;;20.30;36.00;;;;;;4993422;28;20033;-63
2022/04/03 09:14:57;;;;;;;2.72;1.23;;;20.30;36.20;;;;;;4992538;28;20104;-64
2022/04/03 09:17:49;;;;;;;2.53;1.30;;;20.30;36.30;;;;;;4983822;28;20097;-63
2022/04/03 09:20:22;;;;;;;3.53;1.50;;;20.40;36.50;;;;;;4990746;28;20104;-62
2022/04/03 09:23:05;;;;;;;3.63;1.60;;;20.40;36.70;;;;;;4990141;28;20025;-63
2022/04/03 09:25:32;;;;;;;3.13;1.40;;;20.40;36.80;;;;;;4992886;28;20061;-65
2022/04/03 09:28:01;;;;;;;3.03;1.38;;;20.30;36.80;;;;;;4991052;28;20119;-66
2022/04/03 09:30:31;;;;;;;;;;;20.40;37.00;;;;;;4992432;28;20452;-64
2022/04/03 09:32:59;;;;;;;3.05;1.30;;;20.40;37.10;;;;;;4990559;28;19958;-63
2022/04/03 09:35:31;;;;;;;2.85;1.35;;;20.40;37.20;;;;;;4991978;28;20526;-64
2022/04/03 09:38:14;;;;;;;3.45;1.30;;;20.40;37.30;;;;;;4989858;28;20536;-63
2022/04/03 09:40:44;;;;;;;3.25;1.52;;;20.40;37.70;;;;;;4993029;28;20236;-62
2022/04/03 09:43:27;;;;;;;2.95;1.40;;;20.40;37.40;;;;;;4984794;28;21384;-63
2022/04/03 09:45:58;;;;;;;3.22;1.60;;;20.40;37.50;;;;;;4991301;28;20033;-64
2022/04/03 09:48:39;;;;;;;3.88;1.70;;;20.40;37.60;;;;;;4988767;28;20033;-67
2022/04/03 09:51:13;;;;;;;4.88;1.77;;;20.40;37.70;;;;;;4992657;28;20069;-63
2022/04/03 09:53:52;;;;;;;3.63;1.45;;;20.40;37.80;;;;;;4992045;28;20030;-63
2022/04/03 09:56:23;;;;;;;4.18;1.75;;;20.40;37.80;;;;;;4991390;28;20423;-63
2022/04/03 09:58:52;;;;;;;4.65;1.60;;;20.40;37.90;;;;;;4989430;28;20029;-67
2022/04/03 10:01:22;;;;;;;4.30;1.80;;;20.40;38.00;;;;;;4989435;28;20050;-63
2022/04/03 10:03:49;;;;;;;4.13;1.70;;;20.40;38.10;;;;;;4991557;28;20434;-63
2022/04/03 10:06:14;;;;;;;3.47;1.70;;;20.40;38.10;;;;;;4990145;28;20111;-64
2022/04/03 10:08:41;;;;;;;3.60;1.60;;;20.40;38.10;;;;;;4994499;28;20032;-62
2022/04/03 10:11:08;;;;;;;4.47;2.00;;;20.40;38.20;;;;;;4993926;28;20034;-63
2022/04/03 10:13:35;;;;;;;4.88;1.98;;;20.40;38.30;;;;;;4992373;28;20033;-62
2022/04/03 10:16:01;;;;;;;4.63;1.98;;;20.40;38.40;;;;;;4990809;28;20103;-61
2022/04/03 10:18:26;;;;;;;3.20;2.00;;;20.40;38.40;;;;;;4990125;28;20506;-63
2022/04/03 10:20:52;;;;;;;4.47;1.80;;;20.40;38.50;;;;;;4992965;28;20045;-67
2022/04/03 10:23:21;;;;;;;3.78;2.00;;;20.40;38.50;;;;;;4989786;28;20046;-62
2022/04/03 10:25:51;;;;;;;3.42;1.75;;;20.50;38.60;;;;;;4993340;28;20573;-63
2022/04/03 10:28:19;;;;;;;3.35;1.52;;;20.50;39.20;;;;;;4989406;28;20052;-66
2022/04/03 10:30:45;;;;;;;5.00;1.98;;;20.50;38.70;;;;;;4988946;28;20045;-62
2022/04/03 10:33:20;;;;;;;4.88;2.00;;;20.50;38.80;;;;;;4984056;28;20398;-64
2022/04/03 10:36:02;;;;;;;4.18;2.05;;;20.50;38.80;;;;;;4993208;28;20041;-66
2022/04/03 10:38:35;;;;;;;3.25;1.60;;;20.50;38.80;;;;;;4985347;28;20109;-63
2022/04/03 10:41:00;;;;;;;4.53;1.80;;;20.50;38.90;;;;;;4988211;28;20026;-64
2022/04/03 10:43:31;;;;;;;4.38;1.90;;;20.50;39.10;;;;;;4976344;28;20519;-64
2022/04/03 10:45:57;;;;;;;4.00;2.05;;;20.60;39.60;;;;;;4977933;28;20409;-64
2022/04/03 10:48:24;;;;;;;5.07;2.33;;;20.70;39.80;;;;;;4981702;28;20595;-64
2022/04/03 10:50:57;;;;;;;4.70;1.95;;;20.90;39.70;;;;;;4986817;28;20042;-63
2022/04/03 10:53:25;;;;;;;4.32;2.00;;;21.10;39.50;;;;;;4981242;28;20025;-64
2022/04/03 10:55:58;;;;;;;3.53;1.83;;;21.30;39.30;;;;;;4985372;28;20053;-62
2022/04/03 10:58:24;;;;;;;7.25;2.50;;;21.50;39.00;;;;;;4983620;28;20973;-65
2022/04/03 11:00:50;;;;;;;6.22;2.67;;;21.60;38.70;;;;;;4981155;28;20119;-61
2022/04/03 11:03:19;;;;;;;4.88;1.80;;;21.80;38.40;;;;;;4976354;28;20044;-64
2022/04/03 11:05:47;;;;;;;3.75;1.65;;;21.90;38.20;;;;;;4984179;28;20180;-64
2022/04/03 11:08:13;;;;;;;3.80;1.77;;;21.90;38.10;;;;;;4985726;28;20048;-61
2022/04/03 11:10:56;;;;;;;4.00;1.60;;;21.90;38.10;;;;;;4984323;28;20701;-63
2022/04/03 11:13:31;;;;;;;2.97;1.40;;;21.90;38.10;;;;;;4987678;28;20030;-63
2022/04/03 11:16:00;;;;;;;3.88;1.85;;;21.90;38.10;;;;;;4981510;28;20037;-65
2022/04/03 11:18:29;;;;;;;4.05;1.70;;;21.90;38.00;;;;;;4980213;28;20037;-64
2022/04/03 11:21:28;;;;;;;3.58;1.70;;;22.00;38.00;;;;;;4986250;28;20030;-64
2022/04/03 11:24:11;;;;;;;3.93;1.93;;;21.90;37.80;;;;;;4978068;28;20038;-67
2022/04/03 11:26:39;;;;;;;5.47;2.03;;;22.00;37.80;;;;;;4979846;28;20300;-65
2022/04/03 11:29:06;;;;;;;4.40;1.85;;;22.00;37.70;;;;;;4983253;28;20038;-66
2022/04/03 11:31:33;;;;;;;3.60;1.77;;;22.00;37.60;;;;;;4983690;28;20127;-65
2022/04/03 11:33:59;;;;;;;3.67;1.90;;;22.00;37.50;;;;;;4980363;28;20038;-63
2022/04/03 11:36:30;;;;;;;3.50;1.70;;;22.10;37.50;;;;;;4984828;28;20132;-64
2022/04/03 11:38:56;;;;;;;4.28;1.77;;;22.10;37.40;;;;;;4986456;28;20072;-63
2022/04/03 11:41:31;;;;;;;4.05;2.03;;;22.10;37.20;;;;;;4985729;28;20113;-63
2022/04/03 11:44:16;;;;;;;4.35;1.52;;;22.10;37.20;;;;;;4986699;28;20022;-65
2022/04/03 11:46:46;;;;;;;4.07;1.88;;;22.20;37.10;;;;;;4976848;28;20661;-63
2022/04/03 11:49:12;;;;;;;3.60;1.60;;;22.20;37.10;;;;;;4987086;28;20534;-64
2022/04/03 11:51:38;;;;;;;3.60;1.60;;;22.20;37.00;;;;;;4985871;28;20178;-63
2022/04/03 11:54:04;;;;;;;2.67;1.45;;;22.20;37.00;;;;;;4986051;28;20030;-63
2022/04/03 11:56:35;;;;;;;3.40;1.63;;;22.20;37.00;;;;;;4977003;28;20021;-64
2022/04/03 11:59:03;;;;;;;4.15;1.63;;;22.30;36.90;;;;;;4988483;28;20030;-64
2022/04/03 12:01:34;;;;;;;4.10;1.63;;;22.30;37.30;;;;;;4981512;28;20117;-63
2022/04/03 12:04:13;;;;;;;3.80;1.80;;;22.30;36.70;;;;;;4986161;28;20029;-63
2022/04/03 12:06:49;;;;;;;3.07;1.70;;;22.30;36.50;;;;;;4984749;28;20080;-62
2022/04/03 12:09:16;;;;;;;3.35;1.60;;;22.30;36.50;;;;;;4987324;28;20521;-60
2022/04/03 12:11:51;;;;;;;3.17;1.42;;;22.30;36.30;;;;;;4988024;28;20052;-64
2022/04/03 12:14:30;;;;;;;3.70;1.40;;;22.40;36.20;;;;;;4980845;28;21056;-64
2022/04/03 12:17:01;;;;;;;3.55;1.63;;;22.40;36.10;;;;;;4981326;28;20085;-63
2022/04/03 12:19:28;;;;;;;3.50;1.60;;;22.40;36.00;;;;;;4986516;28;20104;-63
2022/04/03 12:22:00;;;;;;;2.83;1.38;;;22.40;35.90;;;;;;4990677;28;20048;-63
2022/04/03 12:24:30;;;;;;;3.08;1.40;;;22.40;35.80;;;;;;4988299;28;20037;-62
2022/04/03 12:27:05;;;;;;;3.15;1.48;;;22.40;35.80;;;;;;5004095;28;20034;-65
2022/04/03 12:29:31;;;;;;;2.92;1.30;;;22.40;35.60;;;;;;4986803;28;20406;-64
2022/04/03 12:32:03;;;;;;;2.92;1.38;;;22.40;35.50;;;;;;4979250;28;20689;-62
2022/04/03 12:34:31;;;;;;;2.20;1.05;;;22.40;35.60;;;;;;4986469;28;20030;-63
2022/04/03 12:36:58;;;;;;;3.50;1.35;;;22.40;35.50;;;;;;4987227;28;20046;-62
2022/04/03 12:39:30;;;;;;;3.17;1.35;;;22.40;35.40;;;;;;4990327;28;20149;-63
2022/04/03 12:41:57;;;;;;;3.72;1.50;;;22.40;35.30;;;;;;4994303;28;20034;-64
2022/04/03 12:44:23;;;;;;;3.10;1.67;;;22.40;35.50;;;;;;4991133;28;20036;-65
2022/04/03 12:46:48;;;;;;;2.45;1.40;;;22.40;35.30;;;;;;4997599;28;20034;-63
2022/04/03 12:49:19;;;;;;;3.20;1.40;;;22.40;35.40;;;;;;4995172;28;20033;-65